sensor_id;sensor_type;location;lat;lon;timestamp;pressure;altitude;pressure_sealevel;temperature;humidity
54042;BME280;41156;51.508;5.406;2023-04-19T00:00:29;102521.88;;;9.49;96.10
54042;BME280;41156;51.508;5.406;2023-04-19T00:03:29;102521.53;;;9.52;96.44
54042;BME280;41156;51.508;5.406;2023-04-19T00:06:30;102523.75;;;9.56;96.13
54042;BME280;41156;51.508;5.406;2023-04-19T00:09:30;102517.16;;;9.59;96.17
54042;BME280;41156;51.508;5.406;2023-04-19T00:12:31;102511.59;;;9.60;96.23
54042;BME280;41156;51.508;5.406;2023-04-19T00:15:31;102511.94;;;9.66;96.60
54042;BME280;41156;51.508;5.406;2023-04-19T00:18:31;102515.31;;;9.68;95.96
54042;BME280;41156;51.508;5.406;2023-04-19T00:21:32;102518.03;;;9.76;95.60
54042;BME280;41156;51.508;5.406;2023-04-19T00:24:32;102513.13;;;9.79;95.52
54042;BME280;41156;51.508;5.406;2023-04-19T00:27:32;102506.88;;;9.79;95.04
54042;BME280;41156;51.508;5.406;2023-04-19T00:30:33;102510.44;;;9.79;96.15
54042;BME280;41156;51.508;5.406;2023-04-19T00:33:33;102504.16;;;9.87;95.38
54042;BME280;41156;51.508;5.406;2023-04-19T00:36:33;102513.28;;;9.86;95.44
54042;BME280;41156;51.508;5.406;2023-04-19T00:39:34;102511.75;;;9.92;95.08
54042;BME280;41156;51.508;5.406;2023-04-19T00:42:34;102502.84;;;9.91;94.54
54042;BME280;41156;51.508;5.406;2023-04-19T00:45:35;102499.78;;;9.94;94.92
54042;BME280;41156;51.508;5.406;2023-04-19T00:48:36;102498.75;;;9.95;94.87
54042;BME280;41156;51.508;5.406;2023-04-19T00:51:36;102503.81;;;9.98;94.41
54042;BME280;41156;51.508;5.406;2023-04-19T00:54:37;102494.88;;;9.98;94.73
54042;BME280;41156;51.508;5.406;2023-04-19T00:57:40;102498.25;;;10.00;94.40
54042;BME280;41156;51.508;5.406;2023-04-19T01:00:40;102502.66;;;10.01;95.03
54042;BME280;41156;51.508;5.406;2023-04-19T01:03:40;102496.38;;;10.00;94.82
54042;BME280;41156;51.508;5.406;2023-04-19T01:06:41;102493.53;;;10.02;94.88
54042;BME280;41156;51.508;5.406;2023-04-19T01:09:45;102492.34;;;10.05;95.43
54042;BME280;41156;51.508;5.406;2023-04-19T01:12:45;102497.75;;;10.05;94.88
54042;BME280;41156;51.508;5.406;2023-04-19T01:15:45;102495.06;;;10.05;95.57
54042;BME280;41156;51.508;5.406;2023-04-19T01:18:46;102498.41;;;10.07;94.88
54042;BME280;41156;51.508;5.406;2023-04-19T01:21:46;102500.94;;;10.08;94.73
54042;BME280;41156;51.508;5.406;2023-04-19T01:24:46;102495.72;;;10.07;95.26
54042;BME280;41156;51.508;5.406;2023-04-19T01:27:47;102496.72;;;10.06;94.92
54042;BME280;41156;51.508;5.406;2023-04-19T01:30:47;102496.72;;;10.06;95.78
54042;BME280;41156;51.508;5.406;2023-04-19T01:33:50;102504.16;;;10.04;96.62
54042;BME280;41156;51.508;5.406;2023-04-19T01:36:50;102494.72;;;10.08;95.93
54042;BME280;41156;51.508;5.406;2023-04-19T01:39:50;102500.13;;;10.08;95.28
54042;BME280;41156;51.508;5.406;2023-04-19T01:42:51;102494.03;;;10.06;96.96
54042;BME280;41156;51.508;5.406;2023-04-19T01:45:51;102495.72;;;10.07;96.81
54042;BME280;41156;51.508;5.406;2023-04-19T01:48:52;102498.09;;;10.10;95.99
54042;BME280;41156;51.508;5.406;2023-04-19T01:51:52;102488.97;;;10.11;96.97
54042;BME280;41156;51.508;5.406;2023-04-19T01:54:52;102495.22;;;10.11;97.73
54042;BME280;41156;51.508;5.406;2023-04-19T01:57:52;102489.81;;;10.11;96.55
54042;BME280;41156;51.508;5.406;2023-04-19T02:00:53;102487.09;;;10.11;96.98
54042;BME280;41156;51.508;5.406;2023-04-19T02:03:53;102480.00;;;10.10;96.36
54042;BME280;41156;51.508;5.406;2023-04-19T02:06:54;102481.88;;;10.10;97.50
54042;BME280;41156;51.508;5.406;2023-04-19T02:09:54;102477.97;;;10.12;98.08
54042;BME280;41156;51.508;5.406;2023-04-19T02:12:54;102472.41;;;10.14;97.31
54042;BME280;41156;51.508;5.406;2023-04-19T02:15:55;102463.28;;;10.15;97.67
54042;BME280;41156;51.508;5.406;2023-04-19T02:18:55;102462.94;;;10.18;97.19
54042;BME280;41156;51.508;5.406;2023-04-19T02:21:55;102461.75;;;10.21;97.77
54042;BME280;41156;51.508;5.406;2023-04-19T02:24:59;102466.97;;;10.22;98.05
54042;BME280;41156;51.508;5.406;2023-04-19T02:27:59;102460.56;;;10.23;98.58
54042;BME280;41156;51.508;5.406;2023-04-19T02:31:03;102453.97;;;10.26;99.02
54042;BME280;41156;51.508;5.406;2023-04-19T02:34:05;102465.47;;;10.28;98.75
54042;BME280;41156;51.508;5.406;2023-04-19T02:37:05;102466.28;;;10.28;98.64
54042;BME280;41156;51.508;5.406;2023-04-19T02:40:06;102470.53;;;10.31;100.00
54042;BME280;41156;51.508;5.406;2023-04-19T02:43:06;102464.94;;;10.32;98.29
54042;BME280;41156;51.508;5.406;2023-04-19T02:46:07;102465.81;;;10.33;99.39
54042;BME280;41156;51.508;5.406;2023-04-19T02:49:07;102467.66;;;10.32;98.67
54042;BME280;41156;51.508;5.406;2023-04-19T02:52:08;102462.06;;;10.34;99.54
54042;BME280;41156;51.508;5.406;2023-04-19T02:55:08;102464.59;;;10.35;98.71
54042;BME280;41156;51.508;5.406;2023-04-19T02:58:09;102463.78;;;10.35;98.41
54042;BME280;41156;51.508;5.406;2023-04-19T03:01:09;102478.13;;;10.35;98.97
54042;BME280;41156;51.508;5.406;2023-04-19T03:04:09;102464.59;;;10.35;99.24
54042;BME280;41156;51.508;5.406;2023-04-19T03:07:10;102467.13;;;10.37;99.50
54042;BME280;41156;51.508;5.406;2023-04-19T03:10:11;102468.34;;;10.34;100.00
54042;BME280;41156;51.508;5.406;2023-04-19T03:13:11;102466.66;;;10.33;100.00
54042;BME280;41156;51.508;5.406;2023-04-19T03:16:11;102466.66;;;10.33;99.95
54042;BME280;41156;51.508;5.406;2023-04-19T03:19:12;102459.53;;;10.32;99.47
54042;BME280;41156;51.508;5.406;2023-04-19T03:22:12;102460.56;;;10.31;99.94
54042;BME280;41156;51.508;5.406;2023-04-19T03:25:12;102461.56;;;10.30;99.96
54042;BME280;41156;51.508;5.406;2023-04-19T03:28:13;102459.19;;;10.27;100.00
54042;BME280;41156;51.508;5.406;2023-04-19T03:31:13;102460.56;;;10.23;100.00
54042;BME280;41156;51.508;5.406;2023-04-19T03:34:13;102460.75;;;10.22;100.00
54042;BME280;41156;51.508;5.406;2023-04-19T03:37:14;102453.81;;;10.19;100.00
54042;BME280;41156;51.508;5.406;2023-04-19T03:40:14;102446.25;;;10.14;100.00
54042;BME280;41156;51.508;5.406;2023-04-19T03:43:14;102444.88;;;10.10;100.00
54042;BME280;41156;51.508;5.406;2023-04-19T03:46:15;102441.19;;;10.11;100.00
54042;BME280;41156;51.508;5.406;2023-04-19T03:49:15;102445.75;;;10.11;100.00
54042;BME280;41156;51.508;5.406;2023-04-19T03:52:15;102453.66;;;10.12;100.00
54042;BME280;41156;51.508;5.406;2023-04-19T03:55:16;102450.28;;;10.10;100.00
54042;BME280;41156;51.508;5.406;2023-04-19T03:58:16;102450.13;;;10.12;100.00
54042;BME280;41156;51.508;5.406;2023-04-19T04:01:20;102453.00;;;10.10;100.00
54042;BME280;41156;51.508;5.406;2023-04-19T04:04:21;102451.50;;;10.08;100.00
54042;BME280;41156;51.508;5.406;2023-04-19T04:07:22;102459.59;;;10.08;100.00
54042;BME280;41156;51.508;5.406;2023-04-19T04:10:23;102461.44;;;10.07;100.00
54042;BME280;41156;51.508;5.406;2023-04-19T04:13:23;102460.59;;;10.07;100.00
54042;BME280;41156;51.508;5.406;2023-04-19T04:16:24;102459.28;;;10.03;100.00
54042;BME280;41156;51.508;5.406;2023-04-19T04:19:24;102460.63;;;9.98;100.00
54042;BME280;41156;51.508;5.406;2023-04-19T04:22:25;102460.13;;;9.95;100.00
54042;BME280;41156;51.508;5.406;2023-04-19T04:25:25;102465.69;;;9.93;100.00
54042;BME280;41156;51.508;5.406;2023-04-19T04:28:27;102463.50;;;9.89;100.00
54042;BME280;41156;51.508;5.406;2023-04-19T04:31:28;102455.91;;;9.84;100.00
54042;BME280;41156;51.508;5.406;2023-04-19T04:34:28;102462.00;;;9.78;100.00
54042;BME280;41156;51.508;5.406;2023-04-19T04:37:30;102458.81;;;9.74;100.00
54042;BME280;41156;51.508;5.406;2023-04-19T04:40:33;102465.53;;;9.70;100.00
54042;BME280;41156;51.508;5.406;2023-04-19T04:43:33;102465.88;;;9.67;100.00
54042;BME280;41156;51.508;5.406;2023-04-19T04:46:34;102468.75;;;9.66;100.00
54042;BME280;41156;51.508;5.406;2023-04-19T04:49:35;102470.59;;;9.65;100.00
54042;BME280;41156;51.508;5.406;2023-04-19T04:52:35;102477.88;;;9.65;100.00
54042;BME280;41156;51.508;5.406;2023-04-19T04:55:35;102467.41;;;9.61;100.00
54042;BME280;41156;51.508;5.406;2023-04-19T04:58:36;102473.81;;;9.60;100.00
54042;BME280;41156;51.508;5.406;2023-04-19T05:01:36;102483.09;;;9.58;100.00
54042;BME280;41156;51.508;5.406;2023-04-19T05:04:36;102478.19;;;9.53;100.00
54042;BME280;41156;51.508;5.406;2023-04-19T05:07:36;102483.75;;;9.43;100.00
54042;BME280;41156;51.508;5.406;2023-04-19T05:10:37;102480.03;;;9.36;100.00
54042;BME280;41156;51.508;5.406;2023-04-19T05:13:37;102479.00;;;9.29;100.00
54042;BME280;41156;51.508;5.406;2023-04-19T05:16:38;102477.16;;;9.21;100.00
54042;BME280;41156;51.508;5.406;2023-04-19T05:19:38;102491.97;;;9.17;100.00
54042;BME280;41156;51.508;5.406;2023-04-19T05:22:39;102490.78;;;9.12;100.00
54042;BME280;41156;51.508;5.406;2023-04-19T05:25:39;102491.44;;;9.05;100.00
54042;BME280;41156;51.508;5.406;2023-04-19T05:28:40;102491.59;;;9.04;100.00
54042;BME280;41156;51.508;5.406;2023-04-19T05:31:41;102492.97;;;9.08;100.00
54042;BME280;41156;51.508;5.406;2023-04-19T05:34:41;102492.97;;;9.08;100.00
54042;BME280;41156;51.508;5.406;2023-04-19T05:37:42;102483.34;;;9.05;100.00
54042;BME280;41156;51.508;5.406;2023-04-19T05:40:42;102488.22;;;9.02;100.00
54042;BME280;41156;51.508;5.406;2023-04-19T05:43:42;102483.84;;;9.09;100.00
54042;BME280;41156;51.508;5.406;2023-04-19T05:46:43;102485.72;;;9.08;100.00
54042;BME280;41156;51.508;5.406;2023-04-19T05:49:43;102487.41;;;9.10;100.00
54042;BME280;41156;51.508;5.406;2023-04-19T05:52:43;102490.78;;;9.12;100.00
54042;BME280;41156;51.508;5.406;2023-04-19T05:55:43;102486.88;;;9.14;100.00
54042;BME280;41156;51.508;5.406;2023-04-19T05:58:44;102494.16;;;9.14;100.00
54042;BME280;41156;51.508;5.406;2023-04-19T06:01:44;102488.75;;;9.14;100.00
54042;BME280;41156;51.508;5.406;2023-04-19T06:04:45;102497.88;;;9.13;100.00
54042;BME280;41156;51.508;5.406;2023-04-19T06:07:45;102496.34;;;9.10;100.00
54042;BME280;41156;51.508;5.406;2023-04-19T06:10:46;102491.94;;;9.09;100.00
54042;BME280;41156;51.508;5.406;2023-04-19T06:13:48;102506.16;;;9.19;100.00
54042;BME280;41156;51.508;5.406;2023-04-19T06:16:50;102508.50;;;9.31;100.00
54042;BME280;41156;51.508;5.406;2023-04-19T06:19:51;102495.38;;;9.44;99.64
54042;BME280;41156;51.508;5.406;2023-04-19T06:22:51;102505.19;;;9.61;97.81
54042;BME280;41156;51.508;5.406;2023-04-19T06:25:52;102489.16;;;9.93;96.47
54042;BME280;41156;51.508;5.406;2023-04-19T06:28:52;102500.06;;;10.41;94.40
54042;BME280;41156;51.508;5.406;2023-04-19T06:31:52;102491.16;;;10.80;92.47
54042;BME280;41156;51.508;5.406;2023-04-19T06:34:53;102500.56;;;11.46;92.03
54042;BME280;41156;51.508;5.406;2023-04-19T06:37:53;102491.66;;;11.84;88.50
54042;BME280;41156;51.508;5.406;2023-04-19T06:40:53;102493.28;;;12.08;83.14
54042;BME280;41156;51.508;5.406;2023-04-19T06:43:53;102488.38;;;11.89;82.30
54042;BME280;41156;51.508;5.406;2023-04-19T06:46:54;102497.53;;;11.88;84.55
54042;BME280;41156;51.508;5.406;2023-04-19T06:49:55;102498.66;;;12.61;81.31
54042;BME280;41156;51.508;5.406;2023-04-19T06:52:56;102489.53;;;13.35;76.84
54042;BME280;41156;51.508;5.406;2023-04-19T06:56:00;102486.38;;;14.03;67.30
54042;BME280;41156;51.508;5.406;2023-04-19T06:59:01;102486.19;;;14.39;75.82
54042;BME280;41156;51.508;5.406;2023-04-19T07:02:01;102484.78;;;14.50;70.83
54042;BME280;41156;51.508;5.406;2023-04-19T07:05:01;102484.69;;;14.65;66.59
54042;BME280;41156;51.508;5.406;2023-04-19T07:08:02;102502.97;;;14.85;68.32
54042;BME280;41156;51.508;5.406;2023-04-19T07:11:04;102497.81;;;15.03;62.17
54042;BME280;41156;51.508;5.406;2023-04-19T07:14:04;102492.03;;;15.33;58.96
54042;BME280;41156;51.508;5.406;2023-04-19T07:17:05;102495.63;;;15.53;59.26
54042;BME280;41156;51.508;5.406;2023-04-19T07:20:05;102499.00;;;15.69;60.72
54042;BME280;41156;51.508;5.406;2023-04-19T07:23:06;102494.41;;;15.89;59.72
54042;BME280;41156;51.508;5.406;2023-04-19T07:26:06;102500.28;;;15.93;59.62
54042;BME280;41156;51.508;5.406;2023-04-19T07:29:07;102505.06;;;15.58;56.59
54042;BME280;41156;51.508;5.406;2023-04-19T07:32:07;102501.50;;;15.50;56.34
54042;BME280;41156;51.508;5.406;2023-04-19T07:35:08;102497.50;;;15.40;58.29
54042;BME280;41156;51.508;5.406;2023-04-19T07:38:08;102492.53;;;15.77;57.87
54042;BME280;41156;51.508;5.406;2023-04-19T07:41:09;102488.34;;;15.94;56.54
54042;BME280;41156;51.508;5.406;2023-04-19T07:44:09;102478.63;;;16.32;57.73
54042;BME280;41156;51.508;5.406;2023-04-19T07:47:10;102491.56;;;16.56;51.77
54042;BME280;41156;51.508;5.406;2023-04-19T07:50:11;102488.28;;;16.27;51.04
54042;BME280;41156;51.508;5.406;2023-04-19T07:53:11;102489.78;;;16.10;54.10
54042;BME280;41156;51.508;5.406;2023-04-19T07:56:12;102483.91;;;16.00;49.54
54042;BME280;41156;51.508;5.406;2023-04-19T07:59:13;102483.88;;;16.20;50.39
54042;BME280;41156;51.508;5.406;2023-04-19T08:02:13;102486.84;;;16.12;53.64
54042;BME280;41156;51.508;5.406;2023-04-19T08:05:15;102482.88;;;16.14;53.47
54042;BME280;41156;51.508;5.406;2023-04-19T08:08:19;102476.97;;;16.24;50.24
54042;BME280;41156;51.508;5.406;2023-04-19T08:11:19;102472.50;;;16.50;52.12
54042;BME280;41156;51.508;5.406;2023-04-19T08:14:20;102478.25;;;16.87;53.55
54042;BME280;41156;51.508;5.406;2023-04-19T08:17:20;102469.09;;;17.13;52.68
54042;BME280;41156;51.508;5.406;2023-04-19T08:20:23;102483.78;;;17.12;51.53
54042;BME280;41156;51.508;5.406;2023-04-19T08:23:23;102473.84;;;16.92;50.73
54042;BME280;41156;51.508;5.406;2023-04-19T08:26:23;102474.03;;;16.91;51.67
54042;BME280;41156;51.508;5.406;2023-04-19T08:29:24;102473.03;;;16.72;49.12
54042;BME280;41156;51.508;5.406;2023-04-19T08:32:24;102461.25;;;16.78;50.61
54042;BME280;41156;51.508;5.406;2023-04-19T08:35:25;102462.56;;;16.69;50.86
54042;BME280;41156;51.508;5.406;2023-04-19T08:38:25;102469.69;;;16.70;48.41
54042;BME280;41156;51.508;5.406;2023-04-19T08:41:27;102457.78;;;16.57;48.61
54042;BME280;41156;51.508;5.406;2023-04-19T08:44:30;102460.50;;;16.57;50.28
54042;BME280;41156;51.508;5.406;2023-04-19T08:47:32;102465.13;;;16.50;48.93
54042;BME280;41156;51.508;5.406;2023-04-19T08:50:33;102458.84;;;16.50;49.92
54042;BME280;41156;51.508;5.406;2023-04-19T08:53:34;102453.78;;;16.53;48.74
54042;BME280;41156;51.508;5.406;2023-04-19T08:56:34;102458.63;;;16.51;47.56
54042;BME280;41156;51.508;5.406;2023-04-19T08:59:35;102465.63;;;16.20;46.93
54042;BME280;41156;51.508;5.406;2023-04-19T09:02:46;102452.00;;;16.20;46.35
54042;BME280;41156;51.508;5.406;2023-04-19T09:05:46;102464.00;;;16.06;47.25
54042;BME280;41156;51.508;5.406;2023-04-19T09:08:47;102453.09;;;15.99;46.93
54042;BME280;41156;51.508;5.406;2023-04-19T09:11:48;102463.19;;;15.99;45.78
54042;BME280;41156;51.508;5.406;2023-04-19T09:14:48;102458.16;;;15.76;44.56
54042;BME280;41156;51.508;5.406;2023-04-19T09:18:03;102455.63;;;15.87;44.61
54042;BME280;41156;51.508;5.406;2023-04-19T09:21:04;102446.56;;;16.14;47.17
54042;BME280;41156;51.508;5.406;2023-04-19T09:24:05;102450.16;;;16.07;45.13
54042;BME280;41156;51.508;5.406;2023-04-19T09:27:07;102447.44;;;15.94;45.80
54042;BME280;41156;51.508;5.406;2023-04-19T09:30:07;102449.78;;;15.84;43.79
54042;BME280;41156;51.508;5.406;2023-04-19T09:33:08;102462.94;;;15.87;45.88
54042;BME280;41156;51.508;5.406;2023-04-19T09:36:08;102463.59;;;15.89;43.31
54042;BME280;41156;51.508;5.406;2023-04-19T09:39:09;102454.75;;;16.07;45.25
54042;BME280;41156;51.508;5.406;2023-04-19T09:42:10;102455.53;;;16.34;42.30
54042;BME280;41156;51.508;5.406;2023-04-19T09:45:10;102456.56;;;16.40;43.68
54042;BME280;41156;51.508;5.406;2023-04-19T09:48:12;102442.53;;;16.36;43.64
54042;BME280;41156;51.508;5.406;2023-04-19T09:51:12;102447.38;;;16.34;43.57
54042;BME280;41156;51.508;5.406;2023-04-19T09:54:14;102448.41;;;16.33;40.81
54042;BME280;41156;51.508;5.406;2023-04-19T09:57:15;102446.09;;;16.30;41.41
54042;BME280;41156;51.508;5.406;2023-04-19T10:00:15;102446.72;;;16.39;42.29
54042;BME280;41156;51.508;5.406;2023-04-19T10:03:17;102439.19;;;16.27;42.22
54042;BME280;41156;51.508;5.406;2023-04-19T10:06:18;102442.34;;;16.24;41.35
54042;BME280;41156;51.508;5.406;2023-04-19T10:09:22;102457.25;;;16.22;41.45
54042;BME280;41156;51.508;5.406;2023-04-19T10:12:24;102445.09;;;16.11;38.48
54042;BME280;41156;51.508;5.406;2023-04-19T10:15:26;102446.53;;;16.34;39.59
54042;BME280;41156;51.508;5.406;2023-04-19T10:18:26;102439.53;;;16.51;40.13
54042;BME280;41156;51.508;5.406;2023-04-19T10:21:27;102445.59;;;16.60;37.54
54042;BME280;41156;51.508;5.406;2023-04-19T10:24:28;102436.38;;;16.54;39.12
54042;BME280;41156;51.508;5.406;2023-04-19T10:27:28;102438.31;;;16.47;38.80
54042;BME280;41156;51.508;5.406;2023-04-19T10:30:28;102426.13;;;16.43;38.04
54042;BME280;41156;51.508;5.406;2023-04-19T10:33:33;102423.06;;;16.19;37.35
54042;BME280;41156;51.508;5.406;2023-04-19T10:36:35;102426.19;;;16.23;38.79
54042;BME280;41156;51.508;5.406;2023-04-19T10:39:41;102446.13;;;16.23;36.69
54042;BME280;41156;51.508;5.406;2023-04-19T10:46:35;102426.63;;;16.13;36.89
54042;BME280;41156;51.508;5.406;2023-04-19T10:49:45;102432.47;;;16.23;37.28
54042;BME280;41156;51.508;5.406;2023-04-19T10:52:46;102415.47;;;16.35;37.32
54042;BME280;41156;51.508;5.406;2023-04-19T10:55:49;102412.09;;;16.39;35.48
54042;BME280;41156;51.508;5.406;2023-04-19T11:02:03;102413.56;;;16.35;35.17
54042;BME280;41156;51.508;5.406;2023-04-19T11:05:04;102413.53;;;16.42;35.87
54042;BME280;41156;51.508;5.406;2023-04-19T11:08:05;102416.47;;;16.47;34.37
54042;BME280;41156;51.508;5.406;2023-04-19T11:11:05;102379.91;;;16.55;34.62
54042;BME280;41156;51.508;5.406;2023-04-19T11:14:06;102415.78;;;16.58;34.88
54042;BME280;41156;51.508;5.406;2023-04-19T11:20:22;102406.47;;;16.73;34.40
54042;BME280;41156;51.508;5.406;2023-04-19T11:23:22;102406.69;;;16.71;34.06
54042;BME280;41156;51.508;5.406;2023-04-19T11:26:22;102413.44;;;16.62;32.29
54042;BME280;41156;51.508;5.406;2023-04-19T11:29:23;102399.59;;;16.63;34.92
54042;BME280;41156;51.508;5.406;2023-04-19T11:32:23;102403.56;;;16.68;36.20
54042;BME280;41156;51.508;5.406;2023-04-19T11:35:25;102398.19;;;16.54;35.94
54042;BME280;41156;51.508;5.406;2023-04-19T11:38:27;102393.94;;;16.58;36.30
54042;BME280;41156;51.508;5.406;2023-04-19T11:41:27;102401.88;;;16.67;35.97
54042;BME280;41156;51.508;5.406;2023-04-19T11:44:27;102391.22;;;16.58;36.00
54042;BME280;41156;51.508;5.406;2023-04-19T11:47:28;102390.44;;;16.90;35.26
54042;BME280;41156;51.508;5.406;2023-04-19T11:50:41;102373.84;;;16.91;35.60
54042;BME280;41156;51.508;5.406;2023-04-19T11:53:42;102371.91;;;16.98;36.10
54042;BME280;41156;51.508;5.406;2023-04-19T12:00:08;102363.75;;;16.92;34.31
54042;BME280;41156;51.508;5.406;2023-04-19T12:03:11;102353.59;;;17.06;34.73
54042;BME280;41156;51.508;5.406;2023-04-19T12:06:17;102358.69;;;17.27;35.12
54042;BME280;41156;51.508;5.406;2023-04-19T12:09:19;102357.66;;;17.22;34.18
54042;BME280;41156;51.508;5.406;2023-04-19T12:12:32;102348.19;;;17.24;32.73
54042;BME280;41156;51.508;5.406;2023-04-19T12:15:42;102333.53;;;17.44;32.55
54042;BME280;41156;51.508;5.406;2023-04-19T12:18:48;102336.28;;;17.62;33.87
54042;BME280;41156;51.508;5.406;2023-04-19T12:21:49;102335.91;;;17.59;33.19
54042;BME280;41156;51.508;5.406;2023-04-19T12:24:50;102337.81;;;17.76;31.65
54042;BME280;41156;51.508;5.406;2023-04-19T12:27:52;102327.75;;;17.96;31.83
54042;BME280;41156;51.508;5.406;2023-04-19T12:30:52;102323.78;;;17.91;32.22
54042;BME280;41156;51.508;5.406;2023-04-19T12:33:53;102323.41;;;17.88;32.86
54042;BME280;41156;51.508;5.406;2023-04-19T12:36:53;102321.06;;;17.91;32.53
54042;BME280;41156;51.508;5.406;2023-04-19T12:39:53;102324.66;;;17.92;29.80
54042;BME280;41156;51.508;5.406;2023-04-19T12:42:54;102322.41;;;17.82;31.40
54042;BME280;41156;51.508;5.406;2023-04-19T12:45:54;102327.16;;;17.68;31.77
54042;BME280;41156;51.508;5.406;2023-04-19T12:48:55;102319.97;;;17.74;31.89
54042;BME280;41156;51.508;5.406;2023-04-19T12:51:55;102320.22;;;18.09;31.64
54042;BME280;41156;51.508;5.406;2023-04-19T12:54:55;102318.44;;;18.15;31.23
54042;BME280;41156;51.508;5.406;2023-04-19T12:57:56;102310.66;;;18.00;28.62
54042;BME280;41156;51.508;5.406;2023-04-19T13:00:56;102303.06;;;18.02;30.79
54042;BME280;41156;51.508;5.406;2023-04-19T13:03:56;102298.72;;;18.13;30.40
54042;BME280;41156;51.508;5.406;2023-04-19T13:06:57;102305.41;;;18.17;26.97
54042;BME280;41156;51.508;5.406;2023-04-19T13:09:58;102298.56;;;18.38;28.79
54042;BME280;41156;51.508;5.406;2023-04-19T13:12:58;102288.97;;;18.47;29.75
54042;BME280;41156;51.508;5.406;2023-04-19T13:15:59;102292.53;;;18.48;27.56
54042;BME280;41156;51.508;5.406;2023-04-19T13:18:59;102287.75;;;18.43;29.03
54042;BME280;41156;51.508;5.406;2023-04-19T13:22:00;102278.97;;;18.41;27.96
54042;BME280;41156;51.508;5.406;2023-04-19T13:25:00;102269.78;;;18.36;26.27
54042;BME280;41156;51.508;5.406;2023-04-19T13:28:01;102282.34;;;18.55;26.14
54042;BME280;41156;51.508;5.406;2023-04-19T13:31:03;102259.47;;;18.49;27.72
54042;BME280;41156;51.508;5.406;2023-04-19T13:34:04;102265.41;;;18.46;26.22
54042;BME280;41156;51.508;5.406;2023-04-19T13:37:05;102256.00;;;18.42;26.69
54042;BME280;41156;51.508;5.406;2023-04-19T13:40:05;102262.34;;;18.55;28.24
54042;BME280;41156;51.508;5.406;2023-04-19T13:43:06;102253.44;;;18.59;27.14
54042;BME280;41156;51.508;5.406;2023-04-19T13:46:06;102256.28;;;18.64;26.04
54042;BME280;41156;51.508;5.406;2023-04-19T13:49:06;102256.28;;;18.64;27.84
54042;BME280;41156;51.508;5.406;2023-04-19T13:52:08;102251.16;;;18.56;26.90
54042;BME280;41156;51.508;5.406;2023-04-19T13:55:08;102232.44;;;18.41;27.92
54042;BME280;41156;51.508;5.406;2023-04-19T13:58:09;102239.16;;;18.57;28.02
54042;BME280;41156;51.508;5.406;2023-04-19T14:01:09;102232.47;;;18.53;26.57
54042;BME280;41156;51.508;5.406;2023-04-19T14:04:10;102229.38;;;18.49;29.01
54042;BME280;41156;51.508;5.406;2023-04-19T14:07:10;102220.72;;;18.76;28.59
54042;BME280;41156;51.508;5.406;2023-04-19T14:10:10;102216.00;;;18.83;27.72
54042;BME280;41156;51.508;5.406;2023-04-19T14:13:11;102212.06;;;18.91;28.45
54042;BME280;41156;51.508;5.406;2023-04-19T14:16:11;102218.81;;;18.77;28.74
54042;BME280;41156;51.508;5.406;2023-04-19T14:19:11;102210.81;;;18.63;28.91
54042;BME280;41156;51.508;5.406;2023-04-19T14:22:12;102213.16;;;18.48;29.11
54042;BME280;41156;51.508;5.406;2023-04-19T14:25:12;102197.56;;;18.37;28.73
54042;BME280;41156;51.508;5.406;2023-04-19T14:28:14;102199.16;;;18.56;29.72
54042;BME280;41156;51.508;5.406;2023-04-19T14:31:14;102190.28;;;18.84;29.22
54042;BME280;41156;51.508;5.406;2023-04-19T14:34:15;102179.69;;;18.88;28.62
54042;BME280;41156;51.508;5.406;2023-04-19T14:37:15;102178.47;;;18.72;28.74
54042;BME280;41156;51.508;5.406;2023-04-19T14:40:15;102184.41;;;18.81;28.56
54042;BME280;41156;51.508;5.406;2023-04-19T14:43:17;102171.34;;;18.83;28.59
54042;BME280;41156;51.508;5.406;2023-04-19T14:46:17;102184.34;;;18.88;27.78
54042;BME280;41156;51.508;5.406;2023-04-19T14:49:17;102176.44;;;18.79;28.83
54042;BME280;41156;51.508;5.406;2023-04-19T14:52:17;102173.94;;;18.78;29.68
54042;BME280;41156;51.508;5.406;2023-04-19T14:55:18;102161.19;;;18.60;27.91
54042;BME280;41156;51.508;5.406;2023-04-19T14:58:18;102164.22;;;18.28;28.89
54042;BME280;41156;51.508;5.406;2023-04-19T15:01:20;102163.09;;;18.47;28.11
54042;BME280;41156;51.508;5.406;2023-04-19T15:04:22;102158.94;;;18.68;28.62
54042;BME280;41156;51.508;5.406;2023-04-19T15:07:22;102159.41;;;18.65;28.75
54042;BME280;41156;51.508;5.406;2023-04-19T15:10:22;102144.41;;;18.68;28.43
54042;BME280;41156;51.508;5.406;2023-04-19T15:13:23;102156.44;;;18.67;29.66
54042;BME280;41156;51.508;5.406;2023-04-19T15:16:23;102146.56;;;18.54;29.42
54042;BME280;41156;51.508;5.406;2023-04-19T15:19:23;102138.94;;;18.56;29.62
54042;BME280;41156;51.508;5.406;2023-04-19T15:22:24;102139.28;;;18.60;29.09
54042;BME280;41156;51.508;5.406;2023-04-19T15:25:24;102138.94;;;18.56;29.80
54042;BME280;41156;51.508;5.406;2023-04-19T15:28:25;102134.03;;;18.70;30.24
54042;BME280;41156;51.508;5.406;2023-04-19T15:31:25;102136.09;;;18.86;29.81
54042;BME280;41156;51.508;5.406;2023-04-19T15:34:25;102132.88;;;18.66;27.74
54042;BME280;41156;51.508;5.406;2023-04-19T15:37:26;102134.53;;;18.67;29.95
54042;BME280;41156;51.508;5.406;2023-04-19T15:40:26;102129.53;;;18.52;29.12
54042;BME280;41156;51.508;5.406;2023-04-19T15:43:28;102128.09;;;18.49;30.40
54042;BME280;41156;51.508;5.406;2023-04-19T15:46:28;102126.44;;;18.48;29.95
54042;BME280;41156;51.508;5.406;2023-04-19T15:49:29;102127.00;;;18.27;30.37
54042;BME280;41156;51.508;5.406;2023-04-19T15:52:29;102117.91;;;18.03;29.46
54042;BME280;41156;51.508;5.406;2023-04-19T15:55:30;102115.16;;;18.03;29.56
54042;BME280;41156;51.508;5.406;2023-04-19T15:58:30;102111.34;;;17.92;30.56